sensor_id;sensor_type;location;lat;lon;timestamp;pressure;altitude;pressure_sealevel;temperature;humidity
71239;BME280;61342;51.442;7.370;2023-02-27T00:00:36;101159.69;;;1.45;71.58
71239;BME280;61342;51.442;7.370;2023-02-27T00:01:36;101160.38;;;1.49;71.95
71239;BME280;61342;51.442;7.370;2023-02-27T00:02:38;101167.72;;;1.47;71.88
71239;BME280;61342;51.442;7.370;2023-02-27T00:03:38;101167.31;;;1.48;71.78
71239;BME280;61342;51.442;7.370;2023-02-27T00:04:39;101161.28;;;1.46;71.87
71239;BME280;61342;51.442;7.370;2023-02-27T00:05:43;101158.44;;;1.46;72.14
71239;BME280;61342;51.442;7.370;2023-02-27T00:06:43;101155.69;;;1.43;71.91
71239;BME280;61342;51.442;7.370;2023-02-27T00:07:44;101159.34;;;1.43;72.02
71239;BME280;61342;51.442;7.370;2023-02-27T00:08:44;101161.81;;;1.41;72.24
71239;BME280;61342;51.442;7.370;2023-02-27T00:09:44;101157.50;;;1.37;72.07
71239;BME280;61342;51.442;7.370;2023-02-27T00:10:45;101161.47;;;1.39;72.10
71239;BME280;61342;51.442;7.370;2023-02-27T00:11:45;101161.47;;;1.39;72.43
71239;BME280;61342;51.442;7.370;2023-02-27T00:12:45;101159.44;;;1.40;72.51
71239;BME280;61342;51.442;7.370;2023-02-27T00:13:46;101155.13;;;1.35;72.51
71239;BME280;61342;51.442;7.370;2023-02-27T00:14:46;101163.94;;;1.37;72.30
71239;BME280;61342;51.442;7.370;2023-02-27T00:15:47;101155.44;;;1.37;72.42
71239;BME280;61342;51.442;7.370;2023-02-27T00:16:49;101168.00;;;1.36;72.69
71239;BME280;61342;51.442;7.370;2023-02-27T00:17:49;101169.63;;;1.37;72.74
71239;BME280;61342;51.442;7.370;2023-02-27T00:18:50;101163.94;;;1.37;72.53
71239;BME280;61342;51.442;7.370;2023-02-27T00:19:50;101159.50;;;1.36;72.79
71239;BME280;61342;51.442;7.370;2023-02-27T00:20:50;101163.63;;;1.35;72.88
71239;BME280;61342;51.442;7.370;2023-02-27T00:21:51;101165.28;;;1.33;72.90
71239;BME280;61342;51.442;7.370;2023-02-27T00:22:51;101164.16;;;1.30;72.70
71239;BME280;61342;51.442;7.370;2023-02-27T00:23:52;101166.97;;;1.30;72.92
71239;BME280;61342;51.442;7.370;2023-02-27T00:24:52;101168.56;;;1.31;72.96
71239;BME280;61342;51.442;7.370;2023-02-27T00:25:53;101159.47;;;1.24;72.80
71239;BME280;61342;51.442;7.370;2023-02-27T00:26:53;101169.88;;;1.27;72.83
71239;BME280;61342;51.442;7.370;2023-02-27T00:27:54;101165.81;;;1.28;73.13
71239;BME280;61342;51.442;7.370;2023-02-27T00:28:55;101166.72;;;1.25;72.95
71239;BME280;61342;51.442;7.370;2023-02-27T00:29:56;101167.50;;;1.25;72.86
71239;BME280;61342;51.442;7.370;2023-02-27T00:30:56;101171.56;;;1.24;73.11
71239;BME280;61342;51.442;7.370;2023-02-27T00:31:56;101173.16;;;1.25;73.28
71239;BME280;61342;51.442;7.370;2023-02-27T00:32:57;101169.19;;;1.23;73.44
71239;BME280;61342;51.442;7.370;2023-02-27T00:33:57;101163.53;;;1.23;73.29
71239;BME280;61342;51.442;7.370;2023-02-27T00:34:58;101156.47;;;1.15;73.16
71239;BME280;61342;51.442;7.370;2023-02-27T00:36:00;101172.47;;;1.21;73.19
71239;BME280;61342;51.442;7.370;2023-02-27T00:37:01;101169.31;;;1.19;73.16
71239;BME280;61342;51.442;7.370;2023-02-27T00:38:02;101169.31;;;1.19;73.47
71239;BME280;61342;51.442;7.370;2023-02-27T00:39:02;101166.47;;;1.19;73.15
71239;BME280;61342;51.442;7.370;2023-02-27T00:40:03;101166.09;;;1.17;73.29
71239;BME280;61342;51.442;7.370;2023-02-27T00:41:04;101170.53;;;1.18;73.29
71239;BME280;61342;51.442;7.370;2023-02-27T00:42:05;101172.13;;;1.19;73.32
71239;BME280;61342;51.442;7.370;2023-02-27T00:43:05;101162.03;;;1.18;73.40
71239;BME280;61342;51.442;7.370;2023-02-27T00:44:05;101155.69;;;1.14;73.62
71239;BME280;61342;51.442;7.370;2023-02-27T00:45:06;101164.50;;;1.16;73.50
71239;BME280;61342;51.442;7.370;2023-02-27T00:46:07;101164.50;;;1.16;73.74
71239;BME280;61342;51.442;7.370;2023-02-27T00:47:08;101162.94;;;1.15;73.48
71239;BME280;61342;51.442;7.370;2023-02-27T00:48:08;101165.41;;;1.13;73.56
71239;BME280;61342;51.442;7.370;2023-02-27T00:49:09;101158.97;;;1.13;73.42
71239;BME280;61342;51.442;7.370;2023-02-27T00:50:09;101158.97;;;1.13;73.95
71239;BME280;61342;51.442;7.370;2023-02-27T00:51:10;101163.34;;;1.14;73.67
71239;BME280;61342;51.442;7.370;2023-02-27T00:52:10;101162.13;;;1.15;73.77
71239;BME280;61342;51.442;7.370;2023-02-27T00:53:11;101166.63;;;1.13;73.99
71239;BME280;61342;51.442;7.370;2023-02-27T00:54:11;101166.19;;;1.14;74.00
71239;BME280;61342;51.442;7.370;2023-02-27T00:55:11;101156.13;;;1.13;74.05
71239;BME280;61342;51.442;7.370;2023-02-27T00:56:12;101158.97;;;1.13;74.12
71239;BME280;61342;51.442;7.370;2023-02-27T00:57:12;101157.81;;;1.11;73.82
71239;BME280;61342;51.442;7.370;2023-02-27T00:58:12;101159.50;;;1.08;74.17
71239;BME280;61342;51.442;7.370;2023-02-27T00:59:13;101163.09;;;1.09;73.88
71239;BME280;61342;51.442;7.370;2023-02-27T01:00:13;101156.22;;;1.10;74.00
71239;BME280;61342;51.442;7.370;2023-02-27T01:01:14;101163.09;;;1.09;74.15
71239;BME280;61342;51.442;7.370;2023-02-27T01:02:14;101157.00;;;1.10;74.28
71239;BME280;61342;51.442;7.370;2023-02-27T01:03:14;101154.28;;;1.07;74.23
71239;BME280;61342;51.442;7.370;2023-02-27T01:04:15;101157.56;;;1.05;74.15
71239;BME280;61342;51.442;7.370;2023-02-27T01:05:15;101165.94;;;1.09;74.34
71239;BME280;61342;51.442;7.370;2023-02-27T01:06:15;101157.19;;;1.03;74.47
71239;BME280;61342;51.442;7.370;2023-02-27T01:07:16;101152.88;;;0.99;74.19
71239;BME280;61342;51.442;7.370;2023-02-27T01:08:16;101161.25;;;1.02;74.08
71239;BME280;61342;51.442;7.370;2023-02-27T01:09:17;101162.75;;;1.07;74.57
71239;BME280;61342;51.442;7.370;2023-02-27T01:10:17;101168.06;;;1.05;74.62
71239;BME280;61342;51.442;7.370;2023-02-27T01:11:18;101161.16;;;1.06;74.43
71239;BME280;61342;51.442;7.370;2023-02-27T01:12:18;101157.56;;;1.05;74.52
71239;BME280;61342;51.442;7.370;2023-02-27T01:13:19;101157.97;;;1.04;74.49
71239;BME280;61342;51.442;7.370;2023-02-27T01:14:19;101164.53;;;1.01;74.48
71239;BME280;61342;51.442;7.370;2023-02-27T01:15:19;101160.91;;;1.00;74.32
71239;BME280;61342;51.442;7.370;2023-02-27T01:16:20;101166.13;;;1.02;74.80
71239;BME280;61342;51.442;7.370;2023-02-27T01:17:20;101158.88;;;1.01;74.63
71239;BME280;61342;51.442;7.370;2023-02-27T01:18:21;101151.72;;;0.96;74.86
71239;BME280;61342;51.442;7.370;2023-02-27T01:19:21;101164.19;;;0.99;74.58
71239;BME280;61342;51.442;7.370;2023-02-27T01:20:21;101152.59;;;0.93;74.65
71239;BME280;61342;51.442;7.370;2023-02-27T01:21:23;101157.81;;;0.95;74.62
71239;BME280;61342;51.442;7.370;2023-02-27T01:22:26;101166.66;;;0.97;74.78
71239;BME280;61342;51.442;7.370;2023-02-27T01:23:26;101159.06;;;0.94;74.86
71239;BME280;61342;51.442;7.370;2023-02-27T01:24:27;101156.66;;;0.92;74.72
71239;BME280;61342;51.442;7.370;2023-02-27T01:25:27;101151.91;;;0.89;74.76
71239;BME280;61342;51.442;7.370;2023-02-27T01:26:27;101161.50;;;0.92;74.96
71239;BME280;61342;51.442;7.370;2023-02-27T01:27:28;101147.22;;;0.83;74.78
71239;BME280;61342;51.442;7.370;2023-02-27T01:28:28;101160.41;;;0.89;74.91
71239;BME280;61342;51.442;7.370;2023-02-27T01:29:28;101157.97;;;0.88;75.07
71239;BME280;61342;51.442;7.370;2023-02-27T01:30:29;101161.19;;;0.90;74.82
71239;BME280;61342;51.442;7.370;2023-02-27T01:31:29;101147.56;;;0.85;75.04
71239;BME280;61342;51.442;7.370;2023-02-27T01:32:29;101155.97;;;0.88;74.85
71239;BME280;61342;51.442;7.370;2023-02-27T01:33:30;101151.53;;;0.87;75.12
71239;BME280;61342;51.442;7.370;2023-02-27T01:34:30;101151.97;;;0.86;74.91
71239;BME280;61342;51.442;7.370;2023-02-27T01:35:31;101159.25;;;0.87;74.82
71239;BME280;61342;51.442;7.370;2023-02-27T01:36:31;101168.50;;;0.87;75.21
71239;BME280;61342;51.442;7.370;2023-02-27T01:37:31;101165.34;;;0.85;75.19
71239;BME280;61342;51.442;7.370;2023-02-27T01:38:32;101156.03;;;0.85;75.01
71239;BME280;61342;51.442;7.370;2023-02-27T01:39:32;101166.91;;;0.86;74.96
71239;BME280;61342;51.442;7.370;2023-02-27T01:40:37;101166.13;;;0.86;75.11
71239;BME280;61342;51.442;7.370;2023-02-27T01:41:38;101159.31;;;0.83;75.38
71239;BME280;61342;51.442;7.370;2023-02-27T01:42:38;101163.03;;;0.80;74.99
71239;BME280;61342;51.442;7.370;2023-02-27T01:46:10;101161.38;;;0.83;75.34
71239;BME280;61342;51.442;7.370;2023-02-27T01:47:10;101155.00;;;0.79;75.01
71239;BME280;61342;51.442;7.370;2023-02-27T01:48:31;101153.75;;;0.80;75.24
71239;BME280;61342;51.442;7.370;2023-02-27T01:49:33;101159.06;;;0.78;75.05
71239;BME280;61342;51.442;7.370;2023-02-27T01:50:35;101147.63;;;0.81;75.36
71239;BME280;61342;51.442;7.370;2023-02-27T01:51:40;101154.19;;;0.78;75.25
71239;BME280;61342;51.442;7.370;2023-02-27T01:52:42;101158.16;;;0.81;75.12
71239;BME280;61342;51.442;7.370;2023-02-27T01:53:45;101157.00;;;0.78;75.21
71239;BME280;61342;51.442;7.370;2023-02-27T01:54:46;101162.22;;;0.80;75.20
71239;BME280;61342;51.442;7.370;2023-02-27T01:55:47;101156.56;;;0.80;75.58
71239;BME280;61342;51.442;7.370;2023-02-27T01:56:49;101162.66;;;0.78;75.25
71239;BME280;61342;51.442;7.370;2023-02-27T01:57:51;101154.63;;;0.77;75.59
71239;BME280;61342;51.442;7.370;2023-02-27T01:58:57;101160.66;;;0.79;75.51
71239;BME280;61342;51.442;7.370;2023-02-27T01:59:59;101152.25;;;0.75;75.55
71239;BME280;61342;51.442;7.370;2023-02-27T02:01:00;101160.66;;;0.79;75.36
71239;BME280;61342;51.442;7.370;2023-02-27T02:02:04;101154.19;;;0.78;75.35
71239;BME280;61342;51.442;7.370;2023-02-27T02:03:13;101156.69;;;0.76;75.75
71239;BME280;61342;51.442;7.370;2023-02-27T02:04:31;101151.88;;;0.73;75.39
71239;BME280;61342;51.442;7.370;2023-02-27T02:05:32;101159.06;;;0.78;75.64
71239;BME280;61342;51.442;7.370;2023-02-27T02:06:36;101161.50;;;0.76;75.79
71239;BME280;61342;51.442;7.370;2023-02-27T02:07:38;101158.34;;;0.74;75.57
71239;BME280;61342;51.442;7.370;2023-02-27T02:08:43;101162.34;;;0.76;75.81
71239;BME280;61342;51.442;7.370;2023-02-27T02:09:48;101149.50;;;0.72;75.60
71239;BME280;61342;51.442;7.370;2023-02-27T02:10:50;101164.34;;;0.76;75.70
71239;BME280;61342;51.442;7.370;2023-02-27T02:11:53;101158.69;;;0.76;75.82
71239;BME280;61342;51.442;7.370;2023-02-27T02:12:54;101163.19;;;0.73;75.73
71239;BME280;61342;51.442;7.370;2023-02-27T02:13:59;101164.00;;;0.74;75.79
71239;BME280;61342;51.442;7.370;2023-02-27T02:15:02;101162.78;;;0.75;75.96
71239;BME280;61342;51.442;7.370;2023-02-27T02:16:46;101166.47;;;0.72;75.94
71239;BME280;61342;51.442;7.370;2023-02-27T02:21:02;101162.47;;;0.69;76.18
71239;BME280;61342;51.442;7.370;2023-02-27T02:27:21;101158.53;;;0.67;76.28
71239;BME280;61342;51.442;7.370;2023-02-27T02:29:56;101157.72;;;0.66;76.32
71239;BME280;61342;51.442;7.370;2023-02-27T02:39:00;101164.34;;;0.60;76.11
71239;BME280;61342;51.442;7.370;2023-02-27T02:43:11;101169.66;;;0.58;76.63
71239;BME280;61342;51.442;7.370;2023-02-27T02:44:33;101169.66;;;0.58;76.71
71239;BME280;61342;51.442;7.370;2023-02-27T02:45:50;101166.44;;;0.56;76.66
71239;BME280;61342;51.442;7.370;2023-02-27T02:49:14;101174.06;;;0.59;76.55
71239;BME280;61342;51.442;7.370;2023-02-27T02:50:42;101171.22;;;0.59;76.85
71239;BME280;61342;51.442;7.370;2023-02-27T02:51:54;101167.34;;;0.53;76.83
71239;BME280;61342;51.442;7.370;2023-02-27T02:54:36;101174.94;;;0.56;76.67
71239;BME280;61342;51.442;7.370;2023-02-27T02:56:59;101167.34;;;0.53;77.13
71239;BME280;61342;51.442;7.370;2023-02-27T02:59:16;101167.69;;;0.55;76.93
71239;BME280;61342;51.442;7.370;2023-02-27T02:59:49;101164.59;;;0.50;77.22
71239;BME280;61342;51.442;7.370;2023-02-27T03:02:17;101173.00;;;0.53;77.01
71239;BME280;61342;51.442;7.370;2023-02-27T03:03:25;101177.44;;;0.54;77.03
71239;BME280;61342;51.442;7.370;2023-02-27T03:04:41;101175.81;;;0.53;77.20
71239;BME280;61342;51.442;7.370;2023-02-27T03:05:48;101170.63;;;0.52;77.17
71239;BME280;61342;51.442;7.370;2023-02-27T03:06:55;101183.16;;;0.51;77.17
71239;BME280;61342;51.442;7.370;2023-02-27T03:08:04;101172.63;;;0.51;77.00
71239;BME280;61342;51.442;7.370;2023-02-27T03:09:16;101175.91;;;0.50;77.25
71239;BME280;61342;51.442;7.370;2023-02-27T03:10:39;101165.84;;;0.49;77.31
71239;BME280;61342;51.442;7.370;2023-02-27T03:11:44;101172.72;;;0.48;77.40
71239;BME280;61342;51.442;7.370;2023-02-27T03:12:51;101173.50;;;0.48;77.38
71239;BME280;61342;51.442;7.370;2023-02-27T03:14:03;101172.28;;;0.49;77.56
71239;BME280;61342;51.442;7.370;2023-02-27T03:15:22;101173.16;;;0.46;77.20
71239;BME280;61342;51.442;7.370;2023-02-27T03:16:33;101174.31;;;0.49;77.19
71239;BME280;61342;51.442;7.370;2023-02-27T03:17:41;101173.06;;;0.50;77.56
71239;BME280;61342;51.442;7.370;2023-02-27T03:18:52;101169.91;;;0.48;77.49
71239;BME280;61342;51.442;7.370;2023-02-27T03:19:58;101166.63;;;0.49;77.58
71239;BME280;61342;51.442;7.370;2023-02-27T03:21:08;101176.34;;;0.48;77.37
71239;BME280;61342;51.442;7.370;2023-02-27T03:22:15;101165.53;;;0.43;77.52
71239;BME280;61342;51.442;7.370;2023-02-27T03:23:22;101167.16;;;0.44;77.47
71239;BME280;61342;51.442;7.370;2023-02-27T03:24:32;101179.16;;;0.48;77.46
71239;BME280;61342;51.442;7.370;2023-02-27T03:25:34;101179.16;;;0.48;77.48
71239;BME280;61342;51.442;7.370;2023-02-27T03:26:38;101178.38;;;0.48;77.87
71239;BME280;61342;51.442;7.370;2023-02-27T03:27:49;101171.91;;;0.47;77.88
71239;BME280;61342;51.442;7.370;2023-02-27T03:30:31;101175.28;;;0.42;77.68
71239;BME280;61342;51.442;7.370;2023-02-27T03:31:48;101173.69;;;0.41;77.89
71239;BME280;61342;51.442;7.370;2023-02-27T03:32:59;101178.44;;;0.44;77.99
71239;BME280;61342;51.442;7.370;2023-02-27T03:34:16;101174.03;;;0.43;77.70
71239;BME280;61342;51.442;7.370;2023-02-27T03:35:18;101166.44;;;0.40;77.92
71239;BME280;61342;51.442;7.370;2023-02-27T03:36:31;101166.44;;;0.40;78.12
71239;BME280;61342;51.442;7.370;2023-02-27T03:37:48;101174.56;;;0.38;77.80
71239;BME280;61342;51.442;7.370;2023-02-27T03:39:13;101167.75;;;0.36;78.08
71239;BME280;61342;51.442;7.370;2023-02-27T03:40:35;101173.84;;;0.34;78.01
71239;BME280;61342;51.442;7.370;2023-02-27T03:44:38;101177.09;;;0.33;78.07
71239;BME280;61342;51.442;7.370;2023-02-27T03:46:12;101165.88;;;0.29;77.89
71239;BME280;61342;51.442;7.370;2023-02-27T03:47:13;101171.09;;;0.31;78.25
71239;BME280;61342;51.442;7.370;2023-02-27T03:48:13;101175.25;;;0.26;78.08
71239;BME280;61342;51.442;7.370;2023-02-27T03:49:14;101162.34;;;0.25;78.37
71239;BME280;61342;51.442;7.370;2023-02-27T03:50:15;101174.38;;;0.29;78.25
71239;BME280;61342;51.442;7.370;2023-02-27T03:51:18;101175.53;;;0.32;78.22
71239;BME280;61342;51.442;7.370;2023-02-27T03:52:19;101174.81;;;0.28;78.42
71239;BME280;61342;51.442;7.370;2023-02-27T03:53:32;101169.22;;;0.24;78.41
71239;BME280;61342;51.442;7.370;2023-02-27T03:54:38;101168.34;;;0.27;78.46
71239;BME280;61342;51.442;7.370;2023-02-27T03:55:43;101173.66;;;0.25;78.21
71239;BME280;61342;51.442;7.370;2023-02-27T03:57:01;101180.53;;;0.24;78.46
71239;BME280;61342;51.442;7.370;2023-02-27T03:58:03;101177.19;;;0.29;78.21
71239;BME280;61342;51.442;7.370;2023-02-27T03:59:04;101176.47;;;0.25;78.40
71239;BME280;61342;51.442;7.370;2023-02-27T04:00:06;101182.84;;;0.29;78.33
71239;BME280;61342;51.442;7.370;2023-02-27T04:01:08;101180.03;;;0.29;78.44
71239;BME280;61342;51.442;7.370;2023-02-27T04:02:08;101179.66;;;0.27;78.44
71239;BME280;61342;51.442;7.370;2023-02-27T04:03:09;101175.66;;;0.25;78.54
71239;BME280;61342;51.442;7.370;2023-02-27T04:04:12;101175.16;;;0.30;78.40
71239;BME280;61342;51.442;7.370;2023-02-27T04:05:13;101178.41;;;0.28;78.63
71239;BME280;61342;51.442;7.370;2023-02-27T04:06:13;101176.38;;;0.29;78.44
71239;BME280;61342;51.442;7.370;2023-02-27T04:09:03;101179.31;;;0.25;78.50
71239;BME280;61342;51.442;7.370;2023-02-27T04:11:33;101188.13;;;0.27;78.50
71239;BME280;61342;51.442;7.370;2023-02-27T04:15:28;101192.72;;;0.21;78.80
71239;BME280;61342;51.442;7.370;2023-02-27T04:19:01;101198.38;;;0.21;78.63
71239;BME280;61342;51.442;7.370;2023-02-27T04:21:27;101195.16;;;0.19;78.69
71239;BME280;61342;51.442;7.370;2023-02-27T04:22:37;101204.03;;;0.21;78.79
71239;BME280;61342;51.442;7.370;2023-02-27T04:27:56;101208.59;;;0.15;79.01
71239;BME280;61342;51.442;7.370;2023-02-27T04:29:02;101204.16;;;0.14;79.26
71239;BME280;61342;51.442;7.370;2023-02-27T04:31:27;101197.78;;;0.10;79.10
71239;BME280;61342;51.442;7.370;2023-02-27T04:32:38;101206.63;;;0.12;79.14
71239;BME280;61342;51.442;7.370;2023-02-27T04:33:49;101207.41;;;0.13;79.25
71239;BME280;61342;51.442;7.370;2023-02-27T04:34:55;101196.66;;;0.08;79.20
71239;BME280;61342;51.442;7.370;2023-02-27T04:38:43;101212.34;;;0.09;79.64
71239;BME280;61342;51.442;7.370;2023-02-27T04:39:50;101216.00;;;0.09;79.35
71239;BME280;61342;51.442;7.370;2023-02-27T04:41:07;101211.56;;;0.08;79.52
71239;BME280;61342;51.442;7.370;2023-02-27T04:42:14;101211.19;;;0.06;79.47
71239;BME280;61342;51.442;7.370;2023-02-27T04:43:16;101214.00;;;0.06;79.37
71239;BME280;61342;51.442;7.370;2023-02-27T04:44:20;101209.63;;;0.05;79.56
71239;BME280;61342;51.442;7.370;2023-02-27T04:45:23;101217.66;;;0.07;79.51
71239;BME280;61342;51.442;7.370;2023-02-27T04:46:27;101214.00;;;0.06;79.48
71239;BME280;61342;51.442;7.370;2023-02-27T04:47:32;101219.66;;;0.06;79.83
71239;BME280;61342;51.442;7.370;2023-02-27T04:48:50;101212.06;;;0.03;79.59
71239;BME280;61342;51.442;7.370;2023-02-27T04:49:57;101207.28;;;0.00;79.46
71239;BME280;61342;51.442;7.370;2023-02-27T04:51:11;101216.56;;;0.01;79.73
71239;BME280;61342;51.442;7.370;2023-02-27T04:52:23;101216.13;;;0.02;79.66
71239;BME280;61342;51.442;7.370;2023-02-27T04:53:33;101214.16;;;-0.01;79.76
71239;BME280;61342;51.442;7.370;2023-02-27T04:54:44;101211.34;;;-0.01;79.88
71239;BME280;61342;51.442;7.370;2023-02-27T04:55:49;101216.13;;;0.02;79.88
71239;BME280;61342;51.442;7.370;2023-02-27T04:56:55;101211.72;;;0.01;79.93
71239;BME280;61342;51.442;7.370;2023-02-27T04:58:40;101209.84;;;-0.05;80.10
71239;BME280;61342;51.442;7.370;2023-02-27T04:59:40;101205.03;;;-0.08;80.13
71239;BME280;61342;51.442;7.370;2023-02-27T05:00:48;101214.16;;;-0.01;80.24
71239;BME280;61342;51.442;7.370;2023-02-27T05:02:01;101221.47;;;-0.03;80.06
71239;BME280;61342;51.442;7.370;2023-02-27T05:03:09;101220.69;;;-0.03;80.05
71239;BME280;61342;51.442;7.370;2023-02-27T05:04:15;101230.78;;;-0.02;80.37
71239;BME280;61342;51.442;7.370;2023-02-27T05:05:21;101218.31;;;-0.05;80.11
71239;BME280;61342;51.442;7.370;2023-02-27T05:06:26;101224.75;;;-0.04;80.14
